sensor_id;sensor_type;location;lat;lon;timestamp;P1;durP1;ratioP1;P2;durP2;ratioP2
43990;SDS011;29654;50.784;20.604;2023-02-16T00:03:00;53.42;;;35.05;;
43990;SDS011;29654;50.784;20.604;2023-02-16T00:08:04;42.50;;;28.50;;
43990;SDS011;29654;50.784;20.604;2023-02-16T00:13:14;55.20;;;33.22;;
43990;SDS011;29654;50.784;20.604;2023-02-16T00:18:47;53.00;;;31.55;;
43990;SDS011;29654;50.784;20.604;2023-02-16T00:23:51;52.45;;;31.73;;
43990;SDS011;29654;50.784;20.604;2023-02-16T00:28:54;43.85;;;28.02;;
43990;SDS011;29654;50.784;20.604;2023-02-16T00:33:58;41.67;;;26.77;;
43990;SDS011;29654;50.784;20.604;2023-02-16T00:39:18;45.05;;;28.30;;
43990;SDS011;29654;50.784;20.604;2023-02-16T00:44:22;49.92;;;29.02;;
43990;SDS011;29654;50.784;20.604;2023-02-16T00:49:33;48.45;;;29.88;;
43990;SDS011;29654;50.784;20.604;2023-02-16T00:54:37;48.45;;;31.52;;
43990;SDS011;29654;50.784;20.604;2023-02-16T00:59:39;48.30;;;30.23;;
43990;SDS011;29654;50.784;20.604;2023-02-16T01:04:42;46.20;;;29.75;;
43990;SDS011;29654;50.784;20.604;2023-02-16T01:09:46;50.30;;;29.65;;
43990;SDS011;29654;50.784;20.604;2023-02-16T01:15:08;47.03;;;28.13;;
43990;SDS011;29654;50.784;20.604;2023-02-16T01:20:14;49.28;;;30.00;;
43990;SDS011;29654;50.784;20.604;2023-02-16T01:25:21;48.72;;;31.63;;
43990;SDS011;29654;50.784;20.604;2023-02-16T01:30:26;46.80;;;28.92;;
43990;SDS011;29654;50.784;20.604;2023-02-16T01:35:30;42.97;;;27.63;;
43990;SDS011;29654;50.784;20.604;2023-02-16T01:40:37;44.03;;;27.70;;
43990;SDS011;29654;50.784;20.604;2023-02-16T01:45:46;32.03;;;22.20;;
43990;SDS011;29654;50.784;20.604;2023-02-16T01:50:53;46.50;;;30.63;;
43990;SDS011;29654;50.784;20.604;2023-02-16T01:56:05;51.53;;;30.05;;
43990;SDS011;29654;50.784;20.604;2023-02-16T02:06:50;42.45;;;26.52;;
43990;SDS011;29654;50.784;20.604;2023-02-16T02:11:55;42.40;;;27.73;;
43990;SDS011;29654;50.784;20.604;2023-02-16T02:17:07;43.88;;;28.77;;
43990;SDS011;29654;50.784;20.604;2023-02-16T02:22:21;41.70;;;26.23;;
43990;SDS011;29654;50.784;20.604;2023-02-16T02:28:22;45.53;;;27.88;;
43990;SDS011;29654;50.784;20.604;2023-02-16T02:33:34;47.28;;;28.45;;
43990;SDS011;29654;50.784;20.604;2023-02-16T02:38:51;44.28;;;26.73;;
43990;SDS011;29654;50.784;20.604;2023-02-16T02:44:06;44.25;;;27.83;;
43990;SDS011;29654;50.784;20.604;2023-02-16T02:49:10;45.33;;;28.47;;
43990;SDS011;29654;50.784;20.604;2023-02-16T02:54:15;49.20;;;29.80;;
43990;SDS011;29654;50.784;20.604;2023-02-16T02:59:43;40.35;;;25.58;;
43990;SDS011;29654;50.784;20.604;2023-02-16T03:05:08;46.40;;;29.08;;
43990;SDS011;29654;50.784;20.604;2023-02-16T03:10:14;48.07;;;28.00;;
43990;SDS011;29654;50.784;20.604;2023-02-16T03:15:39;48.50;;;28.77;;
43990;SDS011;29654;50.784;20.604;2023-02-16T03:20:42;44.92;;;26.95;;
43990;SDS011;29654;50.784;20.604;2023-02-16T03:26:05;50.30;;;28.05;;
43990;SDS011;29654;50.784;20.604;2023-02-16T03:31:28;50.17;;;29.70;;
43990;SDS011;29654;50.784;20.604;2023-02-16T03:36:33;45.23;;;28.17;;
43990;SDS011;29654;50.784;20.604;2023-02-16T03:41:40;42.30;;;26.60;;
43990;SDS011;29654;50.784;20.604;2023-02-16T03:46:48;47.00;;;27.67;;
43990;SDS011;29654;50.784;20.604;2023-02-16T03:51:50;46.07;;;27.17;;
43990;SDS011;29654;50.784;20.604;2023-02-16T03:56:54;44.93;;;27.07;;
43990;SDS011;29654;50.784;20.604;2023-02-16T04:01:58;43.67;;;25.95;;
43990;SDS011;29654;50.784;20.604;2023-02-16T04:07:01;45.35;;;26.85;;
43990;SDS011;29654;50.784;20.604;2023-02-16T04:12:04;47.08;;;28.67;;
43990;SDS011;29654;50.784;20.604;2023-02-16T04:17:26;45.73;;;29.33;;
43990;SDS011;29654;50.784;20.604;2023-02-16T04:22:28;44.30;;;26.03;;
43990;SDS011;29654;50.784;20.604;2023-02-16T04:27:31;50.57;;;28.77;;
43990;SDS011;29654;50.784;20.604;2023-02-16T04:32:35;52.00;;;30.87;;
43990;SDS011;29654;50.784;20.604;2023-02-16T04:37:38;55.50;;;31.20;;
43990;SDS011;29654;50.784;20.604;2023-02-16T04:42:41;52.13;;;28.70;;
43990;SDS011;29654;50.784;20.604;2023-02-16T04:47:46;44.17;;;26.30;;
43990;SDS011;29654;50.784;20.604;2023-02-16T04:52:48;51.03;;;31.03;;
43990;SDS011;29654;50.784;20.604;2023-02-16T04:57:51;49.13;;;27.80;;
43990;SDS011;29654;50.784;20.604;2023-02-16T05:02:55;45.57;;;28.10;;
43990;SDS011;29654;50.784;20.604;2023-02-16T05:07:57;50.90;;;29.40;;
43990;SDS011;29654;50.784;20.604;2023-02-16T05:13:00;62.00;;;33.63;;
43990;SDS011;29654;50.784;20.604;2023-02-16T05:18:36;71.47;;;34.53;;
43990;SDS011;29654;50.784;20.604;2023-02-16T05:23:38;90.60;;;37.13;;
43990;SDS011;29654;50.784;20.604;2023-02-16T05:28:41;117.67;;;38.23;;
43990;SDS011;29654;50.784;20.604;2023-02-16T05:33:45;116.17;;;39.50;;
43990;SDS011;29654;50.784;20.604;2023-02-16T05:38:47;110.67;;;41.40;;
43990;SDS011;29654;50.784;20.604;2023-02-16T05:43:51;65.27;;;34.10;;
43990;SDS011;29654;50.784;20.604;2023-02-16T05:48:56;83.00;;;39.10;;
43990;SDS011;29654;50.784;20.604;2023-02-16T05:53:58;92.20;;;37.60;;
43990;SDS011;29654;50.784;20.604;2023-02-16T05:59:01;133.97;;;43.47;;
43990;SDS011;29654;50.784;20.604;2023-02-16T06:04:05;168.67;;;41.87;;
43990;SDS011;29654;50.784;20.604;2023-02-16T06:09:09;62.23;;;34.90;;
43990;SDS011;29654;50.784;20.604;2023-02-16T06:14:12;58.07;;;32.03;;
43990;SDS011;29654;50.784;20.604;2023-02-16T06:19:18;61.20;;;35.07;;
43990;SDS011;29654;50.784;20.604;2023-02-16T06:24:21;48.70;;;30.80;;
43990;SDS011;29654;50.784;20.604;2023-02-16T06:29:24;63.07;;;36.67;;
43990;SDS011;29654;50.784;20.604;2023-02-16T06:34:28;57.07;;;34.00;;
43990;SDS011;29654;50.784;20.604;2023-02-16T06:39:30;55.00;;;32.50;;
43990;SDS011;29654;50.784;20.604;2023-02-16T06:44:33;52.00;;;31.07;;
43990;SDS011;29654;50.784;20.604;2023-02-16T06:49:38;53.50;;;33.88;;
43990;SDS011;29654;50.784;20.604;2023-02-16T06:54:40;48.90;;;28.40;;
43990;SDS011;29654;50.784;20.604;2023-02-16T06:59:43;51.78;;;32.55;;
43990;SDS011;29654;50.784;20.604;2023-02-16T07:04:47;58.83;;;35.20;;
43990;SDS011;29654;50.784;20.604;2023-02-16T07:09:49;65.25;;;39.42;;
43990;SDS011;29654;50.784;20.604;2023-02-16T07:14:52;86.95;;;51.80;;
43990;SDS011;29654;50.784;20.604;2023-02-16T07:19:56;80.55;;;49.78;;
43990;SDS011;29654;50.784;20.604;2023-02-16T07:24:58;74.65;;;47.17;;
43990;SDS011;29654;50.784;20.604;2023-02-16T07:30:01;84.80;;;49.30;;
43990;SDS011;29654;50.784;20.604;2023-02-16T07:35:06;80.15;;;46.00;;
43990;SDS011;29654;50.784;20.604;2023-02-16T07:40:09;68.68;;;40.78;;
43990;SDS011;29654;50.784;20.604;2023-02-16T07:45:13;67.78;;;38.47;;
43990;SDS011;29654;50.784;20.604;2023-02-16T07:50:17;47.70;;;30.13;;
43990;SDS011;29654;50.784;20.604;2023-02-16T07:55:20;48.45;;;30.40;;
43990;SDS011;29654;50.784;20.604;2023-02-16T08:00:22;41.03;;;27.77;;
43990;SDS011;29654;50.784;20.604;2023-02-16T08:05:28;43.67;;;29.58;;
43990;SDS011;29654;50.784;20.604;2023-02-16T08:10:30;44.08;;;29.20;;
43990;SDS011;29654;50.784;20.604;2023-02-16T08:15:33;44.22;;;28.50;;
43990;SDS011;29654;50.784;20.604;2023-02-16T08:20:37;44.25;;;28.65;;
43990;SDS011;29654;50.784;20.604;2023-02-16T08:25:39;40.83;;;26.88;;
43990;SDS011;29654;50.784;20.604;2023-02-16T08:30:43;38.53;;;27.08;;
43990;SDS011;29654;50.784;20.604;2023-02-16T08:35:47;42.78;;;27.42;;
43990;SDS011;29654;50.784;20.604;2023-02-16T08:40:49;42.90;;;28.27;;
43990;SDS011;29654;50.784;20.604;2023-02-16T08:45:52;43.78;;;28.10;;
43990;SDS011;29654;50.784;20.604;2023-02-16T08:50:56;42.15;;;27.58;;
43990;SDS011;29654;50.784;20.604;2023-02-16T08:55:59;42.05;;;29.33;;
43990;SDS011;29654;50.784;20.604;2023-02-16T09:01:03;41.72;;;28.13;;
43990;SDS011;29654;50.784;20.604;2023-02-16T09:06:09;45.10;;;29.75;;
43990;SDS011;29654;50.784;20.604;2023-02-16T09:11:14;44.00;;;29.60;;
43990;SDS011;29654;50.784;20.604;2023-02-16T09:16:18;46.33;;;29.83;;
43990;SDS011;29654;50.784;20.604;2023-02-16T09:21:24;47.70;;;30.63;;
43990;SDS011;29654;50.784;20.604;2023-02-16T09:26:28;41.22;;;29.83;;
43990;SDS011;29654;50.784;20.604;2023-02-16T09:31:34;40.45;;;27.85;;
43990;SDS011;29654;50.784;20.604;2023-02-16T09:36:40;44.97;;;29.40;;
43990;SDS011;29654;50.784;20.604;2023-02-16T09:41:51;39.85;;;27.88;;
43990;SDS011;29654;50.784;20.604;2023-02-16T09:47:03;38.10;;;27.67;;
43990;SDS011;29654;50.784;20.604;2023-02-16T09:52:16;40.38;;;27.83;;
43990;SDS011;29654;50.784;20.604;2023-02-16T09:57:32;36.70;;;25.65;;
43990;SDS011;29654;50.784;20.604;2023-02-16T10:02:47;35.25;;;25.80;;
43990;SDS011;29654;50.784;20.604;2023-02-16T10:08:00;36.85;;;26.55;;
43990;SDS011;29654;50.784;20.604;2023-02-16T10:13:09;37.83;;;26.10;;
43990;SDS011;29654;50.784;20.604;2023-02-16T10:18:22;31.85;;;22.27;;
43990;SDS011;29654;50.784;20.604;2023-02-16T10:23:36;32.33;;;24.13;;
43990;SDS011;29654;50.784;20.604;2023-02-16T10:28:48;34.38;;;24.05;;
43990;SDS011;29654;50.784;20.604;2023-02-16T10:33:56;33.35;;;24.08;;
43990;SDS011;29654;50.784;20.604;2023-02-16T10:39:23;33.78;;;24.45;;
43990;SDS011;29654;50.784;20.604;2023-02-16T10:44:34;30.35;;;22.83;;
43990;SDS011;29654;50.784;20.604;2023-02-16T10:49:40;30.88;;;22.55;;
43990;SDS011;29654;50.784;20.604;2023-02-16T10:54:44;27.90;;;21.00;;
43990;SDS011;29654;50.784;20.604;2023-02-16T10:59:46;27.80;;;21.38;;
43990;SDS011;29654;50.784;20.604;2023-02-16T11:04:49;26.30;;;19.40;;
43990;SDS011;29654;50.784;20.604;2023-02-16T11:09:55;27.88;;;20.65;;
43990;SDS011;29654;50.784;20.604;2023-02-16T11:15:01;25.63;;;19.27;;
43990;SDS011;29654;50.784;20.604;2023-02-16T11:20:22;25.00;;;18.75;;
43990;SDS011;29654;50.784;20.604;2023-02-16T11:25:30;23.23;;;16.98;;
43990;SDS011;29654;50.784;20.604;2023-02-16T11:30:33;23.67;;;17.13;;
43990;SDS011;29654;50.784;20.604;2023-02-16T11:35:40;20.75;;;15.82;;
43990;SDS011;29654;50.784;20.604;2023-02-16T11:40:49;23.65;;;17.77;;
43990;SDS011;29654;50.784;20.604;2023-02-16T11:45:56;21.77;;;17.10;;
43990;SDS011;29654;50.784;20.604;2023-02-16T11:51:05;21.52;;;16.52;;
43990;SDS011;29654;50.784;20.604;2023-02-16T11:56:13;22.00;;;16.98;;
43990;SDS011;29654;50.784;20.604;2023-02-16T12:01:23;19.98;;;15.35;;
43990;SDS011;29654;50.784;20.604;2023-02-16T12:06:42;20.05;;;15.13;;
43990;SDS011;29654;50.784;20.604;2023-02-16T12:11:58;20.10;;;15.45;;
43990;SDS011;29654;50.784;20.604;2023-02-16T12:17:12;20.85;;;15.85;;
43990;SDS011;29654;50.784;20.604;2023-02-16T12:22:27;22.83;;;17.75;;
43990;SDS011;29654;50.784;20.604;2023-02-16T12:27:43;22.38;;;16.85;;
43990;SDS011;29654;50.784;20.604;2023-02-16T12:32:56;22.52;;;18.52;;
43990;SDS011;29654;50.784;20.604;2023-02-16T12:38:25;22.73;;;16.65;;
43990;SDS011;29654;50.784;20.604;2023-02-16T12:43:40;20.65;;;16.83;;
43990;SDS011;29654;50.784;20.604;2023-02-16T12:48:47;21.83;;;17.65;;
43990;SDS011;29654;50.784;20.604;2023-02-16T12:53:55;21.30;;;16.67;;
43990;SDS011;29654;50.784;20.604;2023-02-16T12:59:06;20.80;;;16.48;;
43990;SDS011;29654;50.784;20.604;2023-02-16T13:04:20;21.25;;;16.42;;
43990;SDS011;29654;50.784;20.604;2023-02-16T13:09:32;22.33;;;16.73;;
43990;SDS011;29654;50.784;20.604;2023-02-16T13:14:42;17.83;;;15.00;;
43990;SDS011;29654;50.784;20.604;2023-02-16T13:19:51;19.23;;;15.10;;
43990;SDS011;29654;50.784;20.604;2023-02-16T13:24:58;18.67;;;15.10;;
43990;SDS011;29654;50.784;20.604;2023-02-16T13:30:35;20.52;;;14.98;;
43990;SDS011;29654;50.784;20.604;2023-02-16T13:36:04;28.20;;;23.95;;
43990;SDS011;29654;50.784;20.604;2023-02-16T13:47:10;21.40;;;15.88;;
43990;SDS011;29654;50.784;20.604;2023-02-16T13:52:26;20.23;;;15.20;;
43990;SDS011;29654;50.784;20.604;2023-02-16T14:03:10;20.23;;;16.08;;
43990;SDS011;29654;50.784;20.604;2023-02-16T14:08:22;19.98;;;16.45;;
43990;SDS011;29654;50.784;20.604;2023-02-16T14:13:27;22.83;;;16.13;;
43990;SDS011;29654;50.784;20.604;2023-02-16T14:18:35;20.00;;;15.60;;
43990;SDS011;29654;50.784;20.604;2023-02-16T14:23:43;24.15;;;16.80;;
43990;SDS011;29654;50.784;20.604;2023-02-16T14:28:57;22.35;;;16.58;;
43990;SDS011;29654;50.784;20.604;2023-02-16T14:34:23;29.27;;;24.37;;
43990;SDS011;29654;50.784;20.604;2023-02-16T14:39:30;20.10;;;15.93;;
43990;SDS011;29654;50.784;20.604;2023-02-16T14:44:38;22.33;;;16.27;;
43990;SDS011;29654;50.784;20.604;2023-02-16T14:50:00;21.50;;;15.55;;
43990;SDS011;29654;50.784;20.604;2023-02-16T15:00:49;20.17;;;16.00;;
43990;SDS011;29654;50.784;20.604;2023-02-16T15:05:58;20.33;;;15.57;;
43990;SDS011;29654;50.784;20.604;2023-02-16T15:11:12;21.98;;;15.82;;
43990;SDS011;29654;50.784;20.604;2023-02-16T15:16:20;20.20;;;15.80;;
43990;SDS011;29654;50.784;20.604;2023-02-16T15:21:26;21.58;;;16.65;;
43990;SDS011;29654;50.784;20.604;2023-02-16T15:26:30;22.02;;;15.85;;
43990;SDS011;29654;50.784;20.604;2023-02-16T15:31:37;21.63;;;16.48;;
43990;SDS011;29654;50.784;20.604;2023-02-16T15:36:42;16.92;;;12.73;;
43990;SDS011;29654;50.784;20.604;2023-02-16T15:41:46;19.20;;;13.88;;
43990;SDS011;29654;50.784;20.604;2023-02-16T15:46:52;20.13;;;13.40;;
43990;SDS011;29654;50.784;20.604;2023-02-16T15:52:11;15.45;;;13.23;;
43990;SDS011;29654;50.784;20.604;2023-02-16T15:57:18;17.38;;;13.63;;
43990;SDS011;29654;50.784;20.604;2023-02-16T16:02:31;16.50;;;12.13;;
43990;SDS011;29654;50.784;20.604;2023-02-16T16:07:38;15.07;;;11.48;;
43990;SDS011;29654;50.784;20.604;2023-02-16T16:12:42;17.27;;;12.60;;
43990;SDS011;29654;50.784;20.604;2023-02-16T16:17:45;19.95;;;14.10;;
43990;SDS011;29654;50.784;20.604;2023-02-16T16:22:55;21.35;;;14.88;;
43990;SDS011;29654;50.784;20.604;2023-02-16T16:27:59;20.75;;;14.70;;
43990;SDS011;29654;50.784;20.604;2023-02-16T16:33:04;18.65;;;13.85;;
43990;SDS011;29654;50.784;20.604;2023-02-16T16:38:20;18.73;;;14.55;;
43990;SDS011;29654;50.784;20.604;2023-02-16T16:43:26;23.83;;;16.23;;
43990;SDS011;29654;50.784;20.604;2023-02-16T16:48:30;22.50;;;15.50;;
43990;SDS011;29654;50.784;20.604;2023-02-16T16:53:49;23.48;;;17.65;;
43990;SDS011;29654;50.784;20.604;2023-02-16T16:58:55;22.48;;;15.95;;
43990;SDS011;29654;50.784;20.604;2023-02-16T17:03:59;24.58;;;16.23;;
43990;SDS011;29654;50.784;20.604;2023-02-16T17:09:03;22.90;;;15.23;;
43990;SDS011;29654;50.784;20.604;2023-02-16T17:14:07;23.92;;;16.70;;
43990;SDS011;29654;50.784;20.604;2023-02-16T17:19:15;23.73;;;15.43;;
43990;SDS011;29654;50.784;20.604;2023-02-16T17:24:21;22.58;;;17.02;;
43990;SDS011;29654;50.784;20.604;2023-02-16T17:29:24;21.25;;;14.75;;
43990;SDS011;29654;50.784;20.604;2023-02-16T17:34:27;23.98;;;17.25;;
43990;SDS011;29654;50.784;20.604;2023-02-16T17:39:31;24.35;;;18.05;;
43990;SDS011;29654;50.784;20.604;2023-02-16T17:44:35;26.25;;;16.58;;
43990;SDS011;29654;50.784;20.604;2023-02-16T17:49:37;28.35;;;20.17;;
43990;SDS011;29654;50.784;20.604;2023-02-16T17:54:41;25.67;;;19.20;;
43990;SDS011;29654;50.784;20.604;2023-02-16T17:59:44;25.45;;;18.40;;
43990;SDS011;29654;50.784;20.604;2023-02-16T18:04:46;32.40;;;21.08;;
43990;SDS011;29654;50.784;20.604;2023-02-16T18:09:50;29.15;;;20.23;;
43990;SDS011;29654;50.784;20.604;2023-02-16T18:14:53;28.98;;;18.80;;
43990;SDS011;29654;50.784;20.604;2023-02-16T18:19:55;29.95;;;20.88;;
43990;SDS011;29654;50.784;20.604;2023-02-16T18:24:59;32.00;;;20.75;;
43990;SDS011;29654;50.784;20.604;2023-02-16T18:30:02;27.05;;;18.58;;
43990;SDS011;29654;50.784;20.604;2023-02-16T18:35:06;31.80;;;21.92;;
43990;SDS011;29654;50.784;20.604;2023-02-16T18:40:12;34.00;;;21.58;;
43990;SDS011;29654;50.784;20.604;2023-02-16T18:45:18;35.95;;;20.17;;
43990;SDS011;29654;50.784;20.604;2023-02-16T18:50:21;32.53;;;21.55;;
43990;SDS011;29654;50.784;20.604;2023-02-16T18:55:25;36.35;;;24.70;;
43990;SDS011;29654;50.784;20.604;2023-02-16T19:00:32;40.25;;;26.90;;
43990;SDS011;29654;50.784;20.604;2023-02-16T19:05:34;39.35;;;26.77;;
43990;SDS011;29654;50.784;20.604;2023-02-16T19:10:38;44.03;;;28.30;;
43990;SDS011;29654;50.784;20.604;2023-02-16T19:15:41;37.78;;;27.00;;
43990;SDS011;29654;50.784;20.604;2023-02-16T19:20:43;50.30;;;30.70;;
43990;SDS011;29654;50.784;20.604;2023-02-16T19:25:48;43.42;;;29.40;;
43990;SDS011;29654;50.784;20.604;2023-02-16T19:30:50;48.10;;;28.48;;
43990;SDS011;29654;50.784;20.604;2023-02-16T19:35:58;42.10;;;28.50;;
43990;SDS011;29654;50.784;20.604;2023-02-16T19:41:07;46.88;;;31.40;;
43990;SDS011;29654;50.784;20.604;2023-02-16T19:46:13;47.22;;;32.22;;
43990;SDS011;29654;50.784;20.604;2023-02-16T19:51:16;39.28;;;26.90;;
43990;SDS011;29654;50.784;20.604;2023-02-16T19:56:21;41.92;;;28.33;;
43990;SDS011;29654;50.784;20.604;2023-02-16T20:01:26;47.40;;;30.00;;
43990;SDS011;29654;50.784;20.604;2023-02-16T20:06:29;44.67;;;28.77;;
43990;SDS011;29654;50.784;20.604;2023-02-16T20:11:38;41.78;;;27.33;;
43990;SDS011;29654;50.784;20.604;2023-02-16T20:16:41;43.05;;;28.13;;
43990;SDS011;29654;50.784;20.604;2023-02-16T20:21:44;38.00;;;25.42;;
43990;SDS011;29654;50.784;20.604;2023-02-16T20:26:48;42.17;;;27.67;;
43990;SDS011;29654;50.784;20.604;2023-02-16T20:31:52;45.20;;;27.80;;
43990;SDS011;29654;50.784;20.604;2023-02-16T20:36:57;45.63;;;28.80;;
43990;SDS011;29654;50.784;20.604;2023-02-16T20:42:01;44.13;;;26.10;;
43990;SDS011;29654;50.784;20.604;2023-02-16T20:47:04;45.47;;;30.10;;
43990;SDS011;29654;50.784;20.604;2023-02-16T20:52:09;53.72;;;31.85;;
43990;SDS011;29654;50.784;20.604;2023-02-16T20:57:14;48.40;;;29.95;;
43990;SDS011;29654;50.784;20.604;2023-02-16T21:02:16;48.80;;;31.38;;
43990;SDS011;29654;50.784;20.604;2023-02-16T21:07:19;36.92;;;24.70;;
43990;SDS011;29654;50.784;20.604;2023-02-16T21:12:23;42.75;;;28.17;;
43990;SDS011;29654;50.784;20.604;2023-02-16T21:17:25;46.67;;;29.77;;
43990;SDS011;29654;50.784;20.604;2023-02-16T21:22:28;49.47;;;31.35;;
43990;SDS011;29654;50.784;20.604;2023-02-16T21:27:32;45.88;;;29.52;;
43990;SDS011;29654;50.784;20.604;2023-02-16T21:32:35;51.47;;;33.78;;
43990;SDS011;29654;50.784;20.604;2023-02-16T21:37:37;37.65;;;24.70;;
43990;SDS011;29654;50.784;20.604;2023-02-16T21:42:41;48.08;;;30.17;;
43990;SDS011;29654;50.784;20.604;2023-02-16T21:47:45;48.67;;;29.90;;
43990;SDS011;29654;50.784;20.604;2023-02-16T21:53:06;50.92;;;29.98;;
43990;SDS011;29654;50.784;20.604;2023-02-16T21:58:10;50.00;;;30.88;;
43990;SDS011;29654;50.784;20.604;2023-02-16T22:03:13;50.28;;;32.08;;
43990;SDS011;29654;50.784;20.604;2023-02-16T22:08:16;49.28;;;30.77;;
43990;SDS011;29654;50.784;20.604;2023-02-16T22:13:20;53.08;;;32.15;;
43990;SDS011;29654;50.784;20.604;2023-02-16T22:18:22;50.72;;;31.00;;
43990;SDS011;29654;50.784;20.604;2023-02-16T22:23:25;48.60;;;30.05;;
43990;SDS011;29654;50.784;20.604;2023-02-16T22:28:29;50.53;;;31.38;;
43990;SDS011;29654;50.784;20.604;2023-02-16T22:33:32;53.53;;;31.25;;
43990;SDS011;29654;50.784;20.604;2023-02-16T22:38:34;49.05;;;30.45;;
43990;SDS011;29654;50.784;20.604;2023-02-16T22:43:38;48.20;;;30.60;;
43990;SDS011;29654;50.784;20.604;2023-02-16T22:48:41;46.60;;;30.13;;
43990;SDS011;29654;50.784;20.604;2023-02-16T22:53:45;46.92;;;30.20;;
43990;SDS011;29654;50.784;20.604;2023-02-16T22:58:49;47.03;;;28.33;;
43990;SDS011;29654;50.784;20.604;2023-02-16T23:03:55;43.92;;;27.50;;
43990;SDS011;29654;50.784;20.604;2023-02-16T23:08:59;46.38;;;29.95;;
43990;SDS011;29654;50.784;20.604;2023-02-16T23:14:06;47.33;;;29.00;;
43990;SDS011;29654;50.784;20.604;2023-02-16T23:19:16;47.72;;;30.63;;
43990;SDS011;29654;50.784;20.604;2023-02-16T23:24:21;45.38;;;29.73;;
43990;SDS011;29654;50.784;20.604;2023-02-16T23:29:26;48.30;;;29.90;;
43990;SDS011;29654;50.784;20.604;2023-02-16T23:34:28;44.95;;;29.00;;
43990;SDS011;29654;50.784;20.604;2023-02-16T23:39:31;49.60;;;30.67;;
43990;SDS011;29654;50.784;20.604;2023-02-16T23:44:35;45.38;;;30.27;;
43990;SDS011;29654;50.784;20.604;2023-02-16T23:49:37;48.35;;;30.60;;
43990;SDS011;29654;50.784;20.604;2023-02-16T23:54:40;44.17;;;28.58;;
43990;SDS011;29654;50.784;20.604;2023-02-16T23:59:44;45.47;;;29.60;;
